Hakuhomaru — JJ4011 — position and weather

sailwx.info

Track history (hours):
 
Tides and Currents Weather Stations Pressure Air Temp Water Temp Dewpoint Dewpoint Depression Visibility Wind Speed Wind Dir Waves Ship Positions

Hakuhomaru

Last reported at 2016-May-06 06:32 UTC. Time now 2016-May-06 07:23 UTC.
Position N 34°41' E 135°12'.

Length 38 m; draft 3.3 m.

Type: Tug. MMSI: 431401584.

Date/timePositionNaut miles runAvg speedWind from/ knotsBaromVisibWave heightAir tempDewpointWater temp
2016-May-06 06:32N 34°41' E 135°12'0 0.0
2016-May-06 05:32N 34°41' E 135°12'2 1.8
2016-May-06 04:33N 34°40' E 135°14'2 1.6
2016-May-06 03:29N 34°41' E 135°12'0 0.0
2016-May-06 02:29N 34°41' E 135°12'0 0.0
2016-May-06 01:29N 34°41' E 135°12'3 2.8
2016-May-06 00:33N 34°39' E 135°14'4 3.4
2016-May-05 23:30N 34°42' E 135°16'1 1.3
2016-May-05 22:33N 34°41' E 135°15'1 0.8
2016-May-05 21:33N 34°40' E 135°15'2 0.0
2016-May-04 05:29N 34°41' E 135°12'3 2.4
2016-May-04 04:25N 34°42' E 135°15'1 0.9
2016-May-04 03:34N 34°41' E 135°14'0 0.4
2016-May-04 02:33N 34°41' E 135°14'1 0.8
2016-May-04 01:32N 34°42' E 135°15'2 1.6
2016-May-04 00:31N 34°40' E 135°15'2 2.3
2016-May-03 23:33N 34°41' E 135°12'0 0.1
2016-May-03 22:32N 34°41' E 135°12'0 0.0
2016-May-03 21:32N 34°41' E 135°12'  
2016-May-01 11:32N 34°41' E 135°12'4 3.5
2016-May-01 10:27N 34°41' E 135°17'0 0.0
2016-May-01 09:33N 34°41' E 135°17'1 1.2
2016-May-01 08:33N 34°42' E 135°15'3 2.7
2016-May-01 07:28N 34°41' E 135°12'0 0.0
2016-May-01 06:22N 34°41' E 135°12'0 0.0
2016-May-01 05:28N 34°41' E 135°12'0 0.0
2016-May-01 04:28N 34°41' E 135°12'2 2.3
2016-May-01 03:27N 34°39' E 135°15'0 0.3
2016-May-01 02:23N 34°39' E 135°15'0 0.0
2016-May-01 01:23N 34°39' E 135°15'1 1.3
2016-May-01 00:34N 34°40' E 135°14'2 1.7
2016-Apr-30 23:31N 34°41' E 135°12'0 0.0
2016-Apr-30 11:08N 34°41' E 135°12'3 5.2
2016-Apr-30 10:33N 34°42' E 135°16'1 1.2
2016-Apr-30 09:30N 34°41' E 135°14'0 0.0
2016-Apr-30 08:30N 34°41' E 135°14'2 2.3
2016-Apr-30 07:31N 34°41' E 135°17'4 3.5
2016-Apr-30 06:29N 34°41' E 135°13'3 2.9
2016-Apr-30 05:33N 34°41' E 135°16'2 1.7
2016-Apr-30 04:30N 34°39' E 135°15'0 0.0
2016-Apr-30 03:30N 34°39' E 135°15'0 0.0
2016-Apr-30 02:30N 34°39' E 135°15'3 3.0
2016-Apr-30 01:33N 34°41' E 135°13'4 3.7
2016-Apr-30 00:26N 34°42' E 135°18'2 1.8
2016-Apr-29 23:25N 34°40' E 135°19'5 5.4
2016-Apr-29 22:27N 34°41' E 135°12'0 0.0
2016-Apr-29 21:33N 34°41' E 135°12'1 0.1
2016-Apr-29 10:33N 34°41' E 135°13'2 2.2
2016-Apr-29 09:31N 34°39' E 135°15'1 1.5
2016-Apr-29 08:33N 34°40' E 135°15'1 1.3
2016-Apr-29 07:30N 34°41' E 135°17'2 2.3
2016-Apr-29 06:33N 34°41' E 135°15'1 1.4
2016-Apr-29 05:33N 34°40' E 135°16'3 2.6
2016-Apr-29 04:28N 34°41' E 135°12'0 0.0
2016-Apr-29 03:28N 34°41' E 135°12'0 0.0
2016-Apr-29 02:28N 34°41' E 135°12'0 0.0
2016-Apr-29 01:28N 34°41' E 135°12'0 0.0
2016-Apr-29 00:28N 34°41' E 135°12'3 3.2
2016-Apr-28 23:33N 34°41' E 135°16'2 1.8
2016-Apr-28 22:28N 34°40' E 135°18'4 4.7
2016-Apr-28 21:33N 34°41' E 135°13'1 0.0
2016-Apr-28 05:20N 34°41' E 135°12'0 0.6
2016-Apr-28 04:33N 34°40' E 135°12'1 0.8
2016-Apr-28 03:33N 34°40' E 135°11'0 0.0
2016-Apr-28 02:27N 34°40' E 135°11'0 0.0
2016-Apr-28 01:33N 34°40' E 135°11'0 0.0
2016-Apr-27 23:32N 34°40' E 135°11'0 0.0
2016-Apr-27 02:31N 34°40' E 135°11'0 0.0
2016-Apr-27 01:25N 34°40' E 135°11'0 0.0
2016-Apr-27 00:25N 34°40' E 135°11'0 0.0
2016-Apr-26 23:31N 34°40' E 135°11'0 0.0
2016-Apr-26 22:31N 34°40' E 135°11'0 0.0
2016-Apr-26 07:25N 34°40' E 135°11'  
Track history (hours):
 
Tides and Currents Weather Stations Pressure Air Temp Water Temp Dewpoint Dewpoint Depression Visibility Wind Speed Wind Dir Waves Ship Positions

Hakuhomaru

Last reported at 2016-May-06 06:32 UTC. Time now 2016-May-06 07:24 UTC.
Position N 34°41' E 135°12'.

Length 38 m; draft 3.3 m.

Type: Tug. MMSI: 431401584.

Date/timePositionNaut miles runAvg speedWind from/ knotsBaromVisibWave heightAir tempDewpointWater temp
2016-May-06 06:32N 34°41' E 135°12'0 0.0
2016-May-06 05:32N 34°41' E 135°12'2 1.8
2016-May-06 04:33N 34°40' E 135°14'2 1.6
2016-May-06 03:29N 34°41' E 135°12'0 0.0
2016-May-06 02:29N 34°41' E 135°12'0 0.0
2016-May-06 01:29N 34°41' E 135°12'3 2.8
2016-May-06 00:33N 34°39' E 135°14'4 3.4
2016-May-05 23:30N 34°42' E 135°16'1 1.3
2016-May-05 22:33N 34°41' E 135°15'1 0.8
2016-May-05 21:33N 34°40' E 135°15'2 0.0
2016-May-04 05:29N 34°41' E 135°12'3 2.4
2016-May-04 04:25N 34°42' E 135°15'1 0.9
2016-May-04 03:34N 34°41' E 135°14'0 0.4
2016-May-04 02:33N 34°41' E 135°14'1 0.8
2016-May-04 01:32N 34°42' E 135°15'2 1.6
2016-May-04 00:31N 34°40' E 135°15'2 2.3
2016-May-03 23:33N 34°41' E 135°12'0 0.1
2016-May-03 22:32N 34°41' E 135°12'0 0.0
2016-May-03 21:32N 34°41' E 135°12'  
2016-May-01 11:32N 34°41' E 135°12'4 3.5
2016-May-01 10:27N 34°41' E 135°17'0 0.0
2016-May-01 09:33N 34°41' E 135°17'1 1.2
2016-May-01 08:33N 34°42' E 135°15'3 2.7
2016-May-01 07:28N 34°41' E 135°12'0 0.0
2016-May-01 06:22N 34°41' E 135°12'0 0.0
2016-May-01 05:28N 34°41' E 135°12'0 0.0
2016-May-01 04:28N 34°41' E 135°12'2 2.3
2016-May-01 03:27N 34°39' E 135°15'0 0.3
2016-May-01 02:23N 34°39' E 135°15'0 0.0
2016-May-01 01:23N 34°39' E 135°15'1 1.3
2016-May-01 00:34N 34°40' E 135°14'2 1.7
2016-Apr-30 23:31N 34°41' E 135°12'0 0.0
2016-Apr-30 11:08N 34°41' E 135°12'3 5.2
2016-Apr-30 10:33N 34°42' E 135°16'1 1.2
2016-Apr-30 09:30N 34°41' E 135°14'0 0.0
2016-Apr-30 08:30N 34°41' E 135°14'2 2.3
2016-Apr-30 07:31N 34°41' E 135°17'4 3.5
2016-Apr-30 06:29N 34°41' E 135°13'3 2.9
2016-Apr-30 05:33N 34°41' E 135°16'2 1.7
2016-Apr-30 04:30N 34°39' E 135°15'0 0.0
2016-Apr-30 03:30N 34°39' E 135°15'0 0.0
2016-Apr-30 02:30N 34°39' E 135°15'3 3.0
2016-Apr-30 01:33N 34°41' E 135°13'4 3.7
2016-Apr-30 00:26N 34°42' E 135°18'2 1.8
2016-Apr-29 23:25N 34°40' E 135°19'5 5.4
2016-Apr-29 22:27N 34°41' E 135°12'0 0.0
2016-Apr-29 21:33N 34°41' E 135°12'1 0.1
2016-Apr-29 10:33N 34°41' E 135°13'2 2.2
2016-Apr-29 09:31N 34°39' E 135°15'1 1.5
2016-Apr-29 08:33N 34°40' E 135°15'1 1.3
2016-Apr-29 07:30N 34°41' E 135°17'2 2.3
2016-Apr-29 06:33N 34°41' E 135°15'1 1.4
2016-Apr-29 05:33N 34°40' E 135°16'3 2.6
2016-Apr-29 04:28N 34°41' E 135°12'0 0.0
2016-Apr-29 03:28N 34°41' E 135°12'0 0.0
2016-Apr-29 02:28N 34°41' E 135°12'0 0.0
2016-Apr-29 01:28N 34°41' E 135°12'0 0.0
2016-Apr-29 00:28N 34°41' E 135°12'3 3.2
2016-Apr-28 23:33N 34°41' E 135°16'2 1.8
2016-Apr-28 22:28N 34°40' E 135°18'4 4.7
2016-Apr-28 21:33N 34°41' E 135°13'1 0.0
2016-Apr-28 05:20N 34°41' E 135°12'0 0.6
2016-Apr-28 04:33N 34°40' E 135°12'1 0.8
2016-Apr-28 03:33N 34°40' E 135°11'0 0.0
2016-Apr-28 02:27N 34°40' E 135°11'0 0.0
2016-Apr-28 01:33N 34°40' E 135°11'0 0.0
2016-Apr-27 23:32N 34°40' E 135°11'0 0.0
2016-Apr-27 02:31N 34°40' E 135°11'0 0.0
2016-Apr-27 01:25N 34°40' E 135°11'0 0.0
2016-Apr-27 00:25N 34°40' E 135°11'0 0.0
2016-Apr-26 23:31N 34°40' E 135°11'0 0.0
2016-Apr-26 22:31N 34°40' E 135°11'0 0.0
2016-Apr-26 07:25N 34°40' E 135°11'  

Dump ship's entire track history